sensor_id;sensor_type;location;lat;lon;timestamp;pressure;altitude;pressure_sealevel;temperature;humidity
17311;BME280;8773;43.300;0.394;2023-05-31T00:02:10;99654.53;;;19.32;68.23
17311;BME280;8773;43.300;0.394;2023-05-31T00:04:38;99650.31;;;19.36;67.80
17311;BME280;8773;43.300;0.394;2023-05-31T00:07:07;99656.97;;;19.40;67.61
17311;BME280;8773;43.300;0.394;2023-05-31T00:09:35;99656.97;;;19.40;67.65
17311;BME280;8773;43.300;0.394;2023-05-31T00:12:02;99663.59;;;19.44;68.41
17311;BME280;8773;43.300;0.394;2023-05-31T00:14:30;99667.56;;;19.48;68.43
17311;BME280;8773;43.300;0.394;2023-05-31T00:16:57;99668.59;;;19.47;68.02
17311;BME280;8773;43.300;0.394;2023-05-31T00:19:27;99667.78;;;19.40;68.67
17311;BME280;8773;43.300;0.394;2023-05-31T00:21:55;99671.13;;;19.35;68.57
17311;BME280;8773;43.300;0.394;2023-05-31T00:24:24;99666.19;;;19.32;68.78
17311;BME280;8773;43.300;0.394;2023-05-31T00:26:51;99669.69;;;19.33;68.86
17311;BME280;8773;43.300;0.394;2023-05-31T00:29:18;99670.47;;;19.47;68.40
17311;BME280;8773;43.300;0.394;2023-05-31T00:31:46;99673.16;;;19.53;68.13
17311;BME280;8773;43.300;0.394;2023-05-31T00:34:13;99671.25;;;19.60;68.08
17311;BME280;8773;43.300;0.394;2023-05-31T00:36:40;99671.03;;;19.62;67.85
17311;BME280;8773;43.300;0.394;2023-05-31T00:39:08;99662.53;;;19.52;68.00
17311;BME280;8773;43.300;0.394;2023-05-31T00:41:37;99668.78;;;19.52;68.16
17311;BME280;8773;43.300;0.394;2023-05-31T00:44:04;99668.53;;;19.60;67.84
17311;BME280;8773;43.300;0.394;2023-05-31T00:46:32;99671.44;;;19.65;67.76
17311;BME280;8773;43.300;0.394;2023-05-31T00:49:01;99667.44;;;19.75;67.40
17311;BME280;8773;43.300;0.394;2023-05-31T00:51:30;99666.00;;;19.72;66.86
17311;BME280;8773;43.300;0.394;2023-05-31T00:53:59;99664.94;;;19.73;66.99
17311;BME280;8773;43.300;0.394;2023-05-31T00:56:27;99667.53;;;19.55;67.90
17311;BME280;8773;43.300;0.394;2023-05-31T00:58:56;99666.56;;;19.36;68.25
17311;BME280;8773;43.300;0.394;2023-05-31T01:01:24;99668.81;;;19.46;68.26
17311;BME280;8773;43.300;0.394;2023-05-31T01:03:52;99659.22;;;19.50;68.09
17311;BME280;8773;43.300;0.394;2023-05-31T01:06:20;99653.56;;;19.58;67.68
17311;BME280;8773;43.300;0.394;2023-05-31T01:08:47;99657.09;;;19.58;67.72
17311;BME280;8773;43.300;0.394;2023-05-31T01:11:20;99655.91;;;19.41;68.12
17311;BME280;8773;43.300;0.394;2023-05-31T01:13:56;99662.81;;;19.30;68.81
17311;BME280;8773;43.300;0.394;2023-05-31T01:16:31;99648.66;;;19.28;68.71
17311;BME280;8773;43.300;0.394;2023-05-31T01:19:05;99646.34;;;19.39;68.45
17311;BME280;8773;43.300;0.394;2023-05-31T01:21:44;99643.81;;;19.44;68.58
17311;BME280;8773;43.300;0.394;2023-05-31T01:24:24;99641.94;;;19.44;68.22
17311;BME280;8773;43.300;0.394;2023-05-31T01:26:55;99632.75;;;19.52;68.07
17311;BME280;8773;43.300;0.394;2023-05-31T01:29:25;99636.28;;;19.52;68.15
17311;BME280;8773;43.300;0.394;2023-05-31T01:31:55;99644.41;;;19.52;68.07
17311;BME280;8773;43.300;0.394;2023-05-31T01:34:22;99644.50;;;19.26;69.07
17311;BME280;8773;43.300;0.394;2023-05-31T01:36:50;99648.72;;;19.09;69.45
17311;BME280;8773;43.300;0.394;2023-05-31T01:39:18;99655.84;;;18.96;69.60
17311;BME280;8773;43.300;0.394;2023-05-31T01:41:47;99648.00;;;18.75;70.50
17311;BME280;8773;43.300;0.394;2023-05-31T01:44:17;99644.91;;;18.58;71.05
17311;BME280;8773;43.300;0.394;2023-05-31T01:46:45;99637.19;;;18.62;70.82
17311;BME280;8773;43.300;0.394;2023-05-31T01:49:13;99645.94;;;18.44;71.80
17311;BME280;8773;43.300;0.394;2023-05-31T01:51:41;99643.84;;;18.26;72.40
17311;BME280;8773;43.300;0.394;2023-05-31T01:54:09;99637.81;;;18.44;71.83
17311;BME280;8773;43.300;0.394;2023-05-31T01:56:39;99631.38;;;18.58;71.28
17311;BME280;8773;43.300;0.394;2023-05-31T01:59:07;99627.00;;;18.64;71.09
17311;BME280;8773;43.300;0.394;2023-05-31T02:01:38;99620.94;;;18.75;70.63
17311;BME280;8773;43.300;0.394;2023-05-31T02:04:06;99627.63;;;18.66;70.79
17311;BME280;8773;43.300;0.394;2023-05-31T02:06:35;99632.63;;;18.56;71.20
17311;BME280;8773;43.300;0.394;2023-05-31T02:09:03;99638.03;;;18.49;71.45
17311;BME280;8773;43.300;0.394;2023-05-31T02:11:31;99638.44;;;18.26;71.71
17311;BME280;8773;43.300;0.394;2023-05-31T02:13:58;99638.88;;;18.23;71.86
17311;BME280;8773;43.300;0.394;2023-05-31T02:16:26;99640.13;;;18.27;71.57
17311;BME280;8773;43.300;0.394;2023-05-31T02:18:54;99638.03;;;18.29;71.70
17311;BME280;8773;43.300;0.394;2023-05-31T02:21:22;99637.81;;;18.31;71.12
17311;BME280;8773;43.300;0.394;2023-05-31T02:23:49;99640.53;;;17.98;72.65
17311;BME280;8773;43.300;0.394;2023-05-31T02:26:17;99637.38;;;17.88;73.12
17311;BME280;8773;43.300;0.394;2023-05-31T02:28:44;99642.38;;;17.91;72.80
17311;BME280;8773;43.300;0.394;2023-05-31T02:31:12;99640.50;;;17.85;72.95
17311;BME280;8773;43.300;0.394;2023-05-31T02:33:40;99639.81;;;17.63;73.77
17311;BME280;8773;43.300;0.394;2023-05-31T02:36:09;99648.06;;;17.48;74.33
17311;BME280;8773;43.300;0.394;2023-05-31T02:38:37;99643.31;;;17.50;74.21
17311;BME280;8773;43.300;0.394;2023-05-31T02:41:05;99642.75;;;17.68;73.19
17311;BME280;8773;43.300;0.394;2023-05-31T02:43:32;99645.47;;;17.75;72.90
17311;BME280;8773;43.300;0.394;2023-05-31T02:45:59;99638.84;;;17.84;72.60
17311;BME280;8773;43.300;0.394;2023-05-31T02:48:27;99641.31;;;17.79;72.63
17311;BME280;8773;43.300;0.394;2023-05-31T02:50:55;99645.44;;;17.68;73.02
17311;BME280;8773;43.300;0.394;2023-05-31T02:53:24;99639.63;;;17.64;73.14
17311;BME280;8773;43.300;0.394;2023-05-31T02:55:51;99643.38;;;17.77;72.36
17311;BME280;8773;43.300;0.394;2023-05-31T02:58:18;99638.78;;;17.64;72.96
17311;BME280;8773;43.300;0.394;2023-05-31T03:00:46;99631.50;;;17.58;72.93
17311;BME280;8773;43.300;0.394;2023-05-31T03:03:13;99638.13;;;17.55;73.48
17311;BME280;8773;43.300;0.394;2023-05-31T03:05:41;99637.13;;;17.63;73.10
17311;BME280;8773;43.300;0.394;2023-05-31T03:08:08;99642.72;;;17.61;72.93
17311;BME280;8773;43.300;0.394;2023-05-31T03:10:37;99642.06;;;17.53;73.30
17311;BME280;8773;43.300;0.394;2023-05-31T03:13:04;99641.00;;;17.47;73.61
17311;BME280;8773;43.300;0.394;2023-05-31T03:15:32;99639.97;;;17.48;73.79
17311;BME280;8773;43.300;0.394;2023-05-31T03:17:59;99637.94;;;17.63;73.26
17311;BME280;8773;43.300;0.394;2023-05-31T03:20:27;99639.66;;;17.84;73.00
17311;BME280;8773;43.300;0.394;2023-05-31T03:22:54;99637.00;;;17.97;72.32
17311;BME280;8773;43.300;0.394;2023-05-31T03:25:22;99635.09;;;18.11;71.75
17311;BME280;8773;43.300;0.394;2023-05-31T03:27:50;99631.38;;;18.25;71.18
17311;BME280;8773;43.300;0.394;2023-05-31T03:30:18;99634.28;;;18.30;71.08
17311;BME280;8773;43.300;0.394;2023-05-31T03:32:45;99647.59;;;18.39;70.81
17311;BME280;8773;43.300;0.394;2023-05-31T03:35:13;99647.38;;;18.47;70.67
17311;BME280;8773;43.300;0.394;2023-05-31T03:37:40;99645.53;;;18.54;70.37
17311;BME280;8773;43.300;0.394;2023-05-31T03:40:08;99644.25;;;18.63;70.12
17311;BME280;8773;43.300;0.394;2023-05-31T03:42:36;99633.84;;;18.73;69.85
17311;BME280;8773;43.300;0.394;2023-05-31T03:45:06;99641.34;;;18.78;69.80
17311;BME280;8773;43.300;0.394;2023-05-31T03:47:34;99638.63;;;18.78;69.40
17311;BME280;8773;43.300;0.394;2023-05-31T03:50:02;99640.09;;;18.80;68.76
17311;BME280;8773;43.300;0.394;2023-05-31T03:52:29;99631.75;;;18.82;69.06
17311;BME280;8773;43.300;0.394;2023-05-31T03:54:56;99632.78;;;18.87;68.80
17311;BME280;8773;43.300;0.394;2023-05-31T03:57:24;99637.53;;;18.92;68.86
17311;BME280;8773;43.300;0.394;2023-05-31T03:59:51;99627.94;;;18.96;68.82
17311;BME280;8773;43.300;0.394;2023-05-31T04:02:20;99626.91;;;18.97;68.31
17311;BME280;8773;43.300;0.394;2023-05-31T04:04:47;99630.25;;;18.92;68.05
17311;BME280;8773;43.300;0.394;2023-05-31T04:07:15;99628.78;;;18.96;68.27
17311;BME280;8773;43.300;0.394;2023-05-31T04:09:42;99633.97;;;18.98;68.12
17311;BME280;8773;43.300;0.394;2023-05-31T04:12:10;99626.72;;;18.92;68.10
17311;BME280;8773;43.300;0.394;2023-05-31T04:14:37;99632.94;;;18.92;68.31
17311;BME280;8773;43.300;0.394;2023-05-31T04:17:05;99628.00;;;18.89;68.23
17311;BME280;8773;43.300;0.394;2023-05-31T04:19:34;99632.94;;;18.92;68.15
17311;BME280;8773;43.300;0.394;2023-05-31T04:22:01;99631.28;;;18.91;68.21
17311;BME280;8773;43.300;0.394;2023-05-31T04:24:29;99634.19;;;18.96;68.25
17311;BME280;8773;43.300;0.394;2023-05-31T04:26:56;99633.56;;;18.94;68.35
17311;BME280;8773;43.300;0.394;2023-05-31T04:29:23;99630.50;;;18.84;68.83
17311;BME280;8773;43.300;0.394;2023-05-31T04:31:51;99632.56;;;18.89;68.83
17311;BME280;8773;43.300;0.394;2023-05-31T04:34:18;99633.97;;;18.98;68.67
17311;BME280;8773;43.300;0.394;2023-05-31T04:36:48;99636.06;;;19.02;68.67
17311;BME280;8773;43.300;0.394;2023-05-31T04:39:16;99633.34;;;19.02;68.77
17311;BME280;8773;43.300;0.394;2023-05-31T04:41:43;99633.75;;;19.06;68.52
17311;BME280;8773;43.300;0.394;2023-05-31T04:44:11;99629.19;;;18.93;68.81
17311;BME280;8773;43.300;0.394;2023-05-31T04:46:38;99632.91;;;19.06;69.20
17311;BME280;8773;43.300;0.394;2023-05-31T04:49:06;99637.94;;;18.95;69.57
17311;BME280;8773;43.300;0.394;2023-05-31T04:51:33;99636.34;;;18.81;70.18
17311;BME280;8773;43.300;0.394;2023-05-31T04:54:02;99636.34;;;18.75;70.47
17311;BME280;8773;43.300;0.394;2023-05-31T04:56:29;99635.53;;;18.61;70.85
17311;BME280;8773;43.300;0.394;2023-05-31T04:58:57;99638.41;;;18.46;71.56
17311;BME280;8773;43.300;0.394;2023-05-31T05:01:24;99634.91;;;18.39;72.06
17311;BME280;8773;43.300;0.394;2023-05-31T05:03:52;99631.38;;;18.52;71.61
17311;BME280;8773;43.300;0.394;2023-05-31T05:06:20;99636.38;;;18.48;71.76
17311;BME280;8773;43.300;0.394;2023-05-31T05:08:48;99636.38;;;18.42;71.89
17311;BME280;8773;43.300;0.394;2023-05-31T05:11:17;99642.19;;;18.52;71.78
17311;BME280;8773;43.300;0.394;2023-05-31T05:13:44;99634.91;;;18.59;71.41
17311;BME280;8773;43.300;0.394;2023-05-31T05:16:12;99642.19;;;18.65;71.26
17311;BME280;8773;43.300;0.394;2023-05-31T05:18:40;99638.41;;;18.46;71.72
17311;BME280;8773;43.300;0.394;2023-05-31T05:21:07;99645.53;;;18.41;72.14
17311;BME280;8773;43.300;0.394;2023-05-31T05:23:34;99649.03;;;18.21;72.93
17311;BME280;8773;43.300;0.394;2023-05-31T05:26:04;99651.75;;;18.41;72.35
17311;BME280;8773;43.300;0.394;2023-05-31T05:28:34;99646.34;;;18.28;72.53
17311;BME280;8773;43.300;0.394;2023-05-31T05:31:02;99641.78;;;18.35;72.51
17311;BME280;8773;43.300;0.394;2023-05-31T05:33:29;99640.94;;;18.34;72.55
17311;BME280;8773;43.300;0.394;2023-05-31T05:35:57;99643.03;;;18.52;72.03
17311;BME280;8773;43.300;0.394;2023-05-31T05:38:24;99645.50;;;18.67;71.65
17311;BME280;8773;43.300;0.394;2023-05-31T05:40:51;99645.69;;;18.85;70.93
17311;BME280;8773;43.300;0.394;2023-05-31T05:43:19;99646.94;;;18.89;70.90
17311;BME280;8773;43.300;0.394;2023-05-31T05:45:48;99649.88;;;18.81;71.13
17311;BME280;8773;43.300;0.394;2023-05-31T05:48:15;99653.81;;;18.72;71.13
17311;BME280;8773;43.300;0.394;2023-05-31T05:50:43;99650.69;;;18.75;71.06
17311;BME280;8773;43.300;0.394;2023-05-31T05:53:10;99650.69;;;18.75;71.11
17311;BME280;8773;43.300;0.394;2023-05-31T05:55:37;99645.03;;;18.90;70.75
17311;BME280;8773;43.300;0.394;2023-05-31T05:58:05;99655.84;;;18.96;70.38
17311;BME280;8773;43.300;0.394;2023-05-31T06:00:32;99649.41;;;18.91;70.66
17311;BME280;8773;43.300;0.394;2023-05-31T06:03:01;99651.69;;;18.94;70.50
17311;BME280;8773;43.300;0.394;2023-05-31T06:05:28;99650.50;;;18.77;71.00
17311;BME280;8773;43.300;0.394;2023-05-31T06:07:56;99652.97;;;18.85;71.09
17311;BME280;8773;43.300;0.394;2023-05-31T06:10:23;99659.19;;;18.92;71.13
17311;BME280;8773;43.300;0.394;2023-05-31T06:12:51;99657.69;;;19.02;70.59
17311;BME280;8773;43.300;0.394;2023-05-31T06:15:18;99658.50;;;19.10;70.52
17311;BME280;8773;43.300;0.394;2023-05-31T06:17:46;99647.88;;;19.15;70.57
17311;BME280;8773;43.300;0.394;2023-05-31T06:20:15;99654.31;;;19.27;70.01
17311;BME280;8773;43.300;0.394;2023-05-31T06:22:42;99659.53;;;19.22;70.13
17311;BME280;8773;43.300;0.394;2023-05-31T06:25:10;99652.06;;;19.11;70.73
17311;BME280;8773;43.300;0.394;2023-05-31T06:27:37;99649.13;;;19.19;70.19
17311;BME280;8773;43.300;0.394;2023-05-31T06:30:06;99639.72;;;19.28;70.13
17311;BME280;8773;43.300;0.394;2023-05-31T06:32:33;99646.72;;;19.49;69.52
17311;BME280;8773;43.300;0.394;2023-05-31T06:35:01;99641.03;;;19.63;68.61
17311;BME280;8773;43.300;0.394;2023-05-31T06:37:30;99643.72;;;19.63;68.34
17311;BME280;8773;43.300;0.394;2023-05-31T06:39:57;99647.25;;;19.71;68.13
17311;BME280;8773;43.300;0.394;2023-05-31T06:42:25;99646.59;;;19.75;68.00
17311;BME280;8773;43.300;0.394;2023-05-31T06:44:52;99655.75;;;19.74;67.62
17311;BME280;8773;43.300;0.394;2023-05-31T06:47:23;99647.13;;;19.84;67.71
17311;BME280;8773;43.300;0.394;2023-05-31T06:49:51;99649.59;;;19.92;67.25
17311;BME280;8773;43.300;0.394;2023-05-31T06:52:18;99654.31;;;20.03;66.79
17311;BME280;8773;43.300;0.394;2023-05-31T06:54:49;99666.19;;;20.02;66.55
17311;BME280;8773;43.300;0.394;2023-05-31T06:57:17;99657.63;;;20.05;66.67
17311;BME280;8773;43.300;0.394;2023-05-31T06:59:44;99662.28;;;19.98;66.79
17311;BME280;8773;43.300;0.394;2023-05-31T07:02:12;99660.25;;;19.87;67.56
17311;BME280;8773;43.300;0.394;2023-05-31T07:04:39;99665.75;;;20.05;66.89
17311;BME280;8773;43.300;0.394;2023-05-31T07:07:07;99662.41;;;20.10;66.43
17311;BME280;8773;43.300;0.394;2023-05-31T07:09:35;99661.34;;;20.17;66.33
17311;BME280;8773;43.300;0.394;2023-05-31T07:12:04;99657.72;;;20.23;66.19
17311;BME280;8773;43.300;0.394;2023-05-31T07:14:31;99667.81;;;20.41;65.57
17311;BME280;8773;43.300;0.394;2023-05-31T07:16:59;99666.09;;;20.47;65.31
17311;BME280;8773;43.300;0.394;2023-05-31T07:19:28;99666.94;;;20.65;65.02
17311;BME280;8773;43.300;0.394;2023-05-31T07:21:56;99672.19;;;20.85;64.21
17311;BME280;8773;43.300;0.394;2023-05-31T07:24:23;99668.31;;;20.99;63.88
17311;BME280;8773;43.300;0.394;2023-05-31T07:26:51;99669.53;;;21.04;63.96
17311;BME280;8773;43.300;0.394;2023-05-31T07:29:19;99667.03;;;21.39;62.40
17311;BME280;8773;43.300;0.394;2023-05-31T07:31:47;99661.19;;;21.72;61.81
17311;BME280;8773;43.300;0.394;2023-05-31T07:34:14;99658.34;;;22.08;60.91
17311;BME280;8773;43.300;0.394;2023-05-31T07:36:42;99655.94;;;23.00;57.50
17311;BME280;8773;43.300;0.394;2023-05-31T07:39:09;99652.53;;;24.47;54.10
17311;BME280;8773;43.300;0.394;2023-05-31T07:41:36;99646.94;;;25.57;50.70
17311;BME280;8773;43.300;0.394;2023-05-31T07:44:04;99659.19;;;25.55;48.94
17311;BME280;8773;43.300;0.394;2023-05-31T07:46:33;99653.66;;;25.50;49.69
17311;BME280;8773;43.300;0.394;2023-05-31T07:49:00;99647.38;;;25.71;47.67
17311;BME280;8773;43.300;0.394;2023-05-31T07:51:28;99652.69;;;25.34;48.62
17311;BME280;8773;43.300;0.394;2023-05-31T07:53:55;99649.97;;;25.61;47.87
17311;BME280;8773;43.300;0.394;2023-05-31T07:56:23;99645.84;;;25.58;48.64
17311;BME280;8773;43.300;0.394;2023-05-31T07:58:50;99652.44;;;25.84;48.07
17311;BME280;8773;43.300;0.394;2023-05-31T08:01:18;99662.00;;;25.16;47.82
17311;BME280;8773;43.300;0.394;2023-05-31T08:03:47;99662.34;;;25.20;47.49
17311;BME280;8773;43.300;0.394;2023-05-31T08:06:14;99655.09;;;25.74;47.11
17311;BME280;8773;43.300;0.394;2023-05-31T08:08:42;99651.88;;;25.82;46.07
17311;BME280;8773;43.300;0.394;2023-05-31T08:11:09;99658.00;;;25.95;45.73
17311;BME280;8773;43.300;0.394;2023-05-31T08:13:37;99656.59;;;25.43;47.60
17311;BME280;8773;43.300;0.394;2023-05-31T08:16:05;99665.53;;;24.95;47.89
17311;BME280;8773;43.300;0.394;2023-05-31T08:18:33;99662.09;;;24.66;48.78
17311;BME280;8773;43.300;0.394;2023-05-31T08:21:01;99653.25;;;24.98;48.34
17311;BME280;8773;43.300;0.394;2023-05-31T08:23:29;99659.94;;;24.68;48.54
17311;BME280;8773;43.300;0.394;2023-05-31T08:25:57;99649.16;;;24.11;50.51
17311;BME280;8773;43.300;0.394;2023-05-31T08:28:24;99657.59;;;24.26;50.17
17311;BME280;8773;43.300;0.394;2023-05-31T08:30:51;99649.88;;;24.52;49.68
17311;BME280;8773;43.300;0.394;2023-05-31T08:33:19;99649.09;;;24.40;50.50
17311;BME280;8773;43.300;0.394;2023-05-31T08:35:46;99649.75;;;24.30;50.78
17311;BME280;8773;43.300;0.394;2023-05-31T08:38:15;99653.78;;;24.11;51.47
17311;BME280;8773;43.300;0.394;2023-05-31T08:40:43;99644.38;;;24.02;51.58
17311;BME280;8773;43.300;0.394;2023-05-31T08:43:12;99645.78;;;23.76;51.41
17311;BME280;8773;43.300;0.394;2023-05-31T08:45:40;99648.63;;;23.69;52.19
17311;BME280;8773;43.300;0.394;2023-05-31T08:48:13;99647.34;;;24.00;51.23
17311;BME280;8773;43.300;0.394;2023-05-31T08:50:41;99641.94;;;23.60;51.97
17311;BME280;8773;43.300;0.394;2023-05-31T08:53:09;99644.03;;;23.98;52.11
17311;BME280;8773;43.300;0.394;2023-05-31T08:55:39;99639.97;;;24.17;50.82
17311;BME280;8773;43.300;0.394;2023-05-31T08:58:07;99640.94;;;23.66;51.98
17311;BME280;8773;43.300;0.394;2023-05-31T09:00:35;99644.25;;;23.40;53.34
17311;BME280;8773;43.300;0.394;2023-05-31T09:03:05;99637.34;;;23.49;53.14
17311;BME280;8773;43.300;0.394;2023-05-31T09:05:33;99636.31;;;23.67;52.47
17311;BME280;8773;43.300;0.394;2023-05-31T09:08:01;99645.53;;;23.49;52.79
17311;BME280;8773;43.300;0.394;2023-05-31T09:10:29;99645.31;;;23.79;52.41
17311;BME280;8773;43.300;0.394;2023-05-31T09:12:57;99640.25;;;24.33;50.39
17311;BME280;8773;43.300;0.394;2023-05-31T09:15:25;99640.31;;;24.38;50.95
17311;BME280;8773;43.300;0.394;2023-05-31T09:17:55;99643.19;;;24.81;50.41
17311;BME280;8773;43.300;0.394;2023-05-31T09:20:30;99636.97;;;24.47;51.02
17311;BME280;8773;43.300;0.394;2023-05-31T09:23:02;99642.09;;;24.44;50.39
17311;BME280;8773;43.300;0.394;2023-05-31T09:25:42;99641.03;;;23.71;53.19
17311;BME280;8773;43.300;0.394;2023-05-31T09:28:11;99640.09;;;23.77;52.15
17311;BME280;8773;43.300;0.394;2023-05-31T09:30:39;99640.38;;;23.92;51.96
17311;BME280;8773;43.300;0.394;2023-05-31T09:33:06;99633.03;;;23.65;53.22
17311;BME280;8773;43.300;0.394;2023-05-31T09:35:34;99637.03;;;23.74;52.86
17311;BME280;8773;43.300;0.394;2023-05-31T09:38:05;99639.72;;;23.85;53.52
17311;BME280;8773;43.300;0.394;2023-05-31T09:40:33;99645.78;;;24.04;52.38
17311;BME280;8773;43.300;0.394;2023-05-31T09:43:01;99636.75;;;24.20;51.32
17311;BME280;8773;43.300;0.394;2023-05-31T09:45:30;99636.59;;;23.93;51.94
17311;BME280;8773;43.300;0.394;2023-05-31T09:47:58;99639.00;;;23.50;53.87
17311;BME280;8773;43.300;0.394;2023-05-31T09:50:25;99641.13;;;23.59;54.10
17311;BME280;8773;43.300;0.394;2023-05-31T09:52:56;99635.19;;;23.62;53.45
17311;BME280;8773;43.300;0.394;2023-05-31T09:55:24;99632.53;;;23.68;53.41
17311;BME280;8773;43.300;0.394;2023-05-31T09:58:05;99628.56;;;23.87;53.02
17311;BME280;8773;43.300;0.394;2023-05-31T10:00:33;99629.50;;;24.09;53.38
17311;BME280;8773;43.300;0.394;2023-05-31T10:03:01;99626.78;;;24.09;52.18
17311;BME280;8773;43.300;0.394;2023-05-31T10:05:30;99626.69;;;24.38;52.31
17311;BME280;8773;43.300;0.394;2023-05-31T10:07:58;99634.00;;;24.49;51.00
17311;BME280;8773;43.300;0.394;2023-05-31T10:10:26;99625.00;;;24.70;51.26
17311;BME280;8773;43.300;0.394;2023-05-31T10:12:57;99623.59;;;24.84;50.47
17311;BME280;8773;43.300;0.394;2023-05-31T10:15:25;99621.53;;;24.97;50.05
17311;BME280;8773;43.300;0.394;2023-05-31T10:17:58;99617.41;;;25.11;50.61
17311;BME280;8773;43.300;0.394;2023-05-31T10:20:31;99620.09;;;24.89;50.44
17311;BME280;8773;43.300;0.394;2023-05-31T10:23:01;99617.44;;;24.94;50.13
17311;BME280;8773;43.300;0.394;2023-05-31T10:25:33;99597.81;;;25.19;50.07
17311;BME280;8773;43.300;0.394;2023-05-31T10:28:04;99612.84;;;25.00;50.06
17311;BME280;8773;43.300;0.394;2023-05-31T10:30:38;99606.88;;;25.03;50.11
17311;BME280;8773;43.300;0.394;2023-05-31T10:33:11;99596.03;;;25.08;51.19
17311;BME280;8773;43.300;0.394;2023-05-31T10:35:39;99604.50;;;25.28;50.34
17311;BME280;8773;43.300;0.394;2023-05-31T10:38:07;99608.94;;;25.34;49.50
17311;BME280;8773;43.300;0.394;2023-05-31T10:40:39;99594.81;;;25.42;49.89
17311;BME280;8773;43.300;0.394;2023-05-31T10:43:14;99591.91;;;25.76;49.18
17311;BME280;8773;43.300;0.394;2023-05-31T10:45:46;99588.00;;;25.99;47.62
17311;BME280;8773;43.300;0.394;2023-05-31T10:48:20;99590.06;;;25.86;48.50
17311;BME280;8773;43.300;0.394;2023-05-31T10:50:53;99586.16;;;26.04;49.47
17311;BME280;8773;43.300;0.394;2023-05-31T10:53:21;99589.13;;;26.35;48.04
17311;BME280;8773;43.300;0.394;2023-05-31T10:55:49;99582.84;;;26.02;47.87
17311;BME280;8773;43.300;0.394;2023-05-31T10:58:26;99586.84;;;26.21;48.55
17311;BME280;8773;43.300;0.394;2023-05-31T11:00:54;99586.09;;;25.99;47.11
17311;BME280;8773;43.300;0.394;2023-05-31T11:03:24;99582.41;;;26.15;47.35
17311;BME280;8773;43.300;0.394;2023-05-31T11:05:57;99583.72;;;25.76;48.06
17311;BME280;8773;43.300;0.394;2023-05-31T11:08:26;99577.28;;;25.92;48.70
17311;BME280;8773;43.300;0.394;2023-05-31T11:11:25;99572.63;;;25.66;50.11
17311;BME280;8773;43.300;0.394;2023-05-31T11:13:58;99564.53;;;25.71;48.29
17311;BME280;8773;43.300;0.394;2023-05-31T11:16:25;99561.78;;;25.49;49.03
17311;BME280;8773;43.300;0.394;2023-05-31T11:19:04;99559.75;;;25.61;48.97
17311;BME280;8773;43.300;0.394;2023-05-31T11:21:46;99555.16;;;25.67;50.27
17311;BME280;8773;43.300;0.394;2023-05-31T11:24:25;99548.34;;;26.01;49.06
17311;BME280;8773;43.300;0.394;2023-05-31T11:26:53;99554.34;;;25.98;48.63
17311;BME280;8773;43.300;0.394;2023-05-31T11:29:21;99546.63;;;25.90;49.00
17311;BME280;8773;43.300;0.394;2023-05-31T11:31:58;99543.81;;;25.80;48.22
17311;BME280;8773;43.300;0.394;2023-05-31T11:34:28;99544.22;;;25.99;47.66
17311;BME280;8773;43.300;0.394;2023-05-31T11:36:58;99530.97;;;26.17;47.69
17311;BME280;8773;43.300;0.394;2023-05-31T11:39:26;99532.03;;;26.11;47.53
17311;BME280;8773;43.300;0.394;2023-05-31T11:41:54;99532.66;;;26.23;47.51
17311;BME280;8773;43.300;0.394;2023-05-31T11:44:26;99525.50;;;26.60;46.73
17311;BME280;8773;43.300;0.394;2023-05-31T11:47:04;99526.91;;;26.67;46.85
17311;BME280;8773;43.300;0.394;2023-05-31T11:49:33;99526.28;;;26.50;46.62
17311;BME280;8773;43.300;0.394;2023-05-31T11:52:01;99520.34;;;26.68;47.91
17311;BME280;8773;43.300;0.394;2023-05-31T11:54:32;99528.72;;;27.04;45.93
17311;BME280;8773;43.300;0.394;2023-05-31T11:57:02;99515.88;;;27.19;45.79
17311;BME280;8773;43.300;0.394;2023-05-31T11:59:30;99521.13;;;26.58;46.80
17311;BME280;8773;43.300;0.394;2023-05-31T12:01:59;99525.13;;;26.41;47.60
17311;BME280;8773;43.300;0.394;2023-05-31T12:04:33;99521.44;;;26.25;48.42
17311;BME280;8773;43.300;0.394;2023-05-31T12:07:01;99521.72;;;26.23;48.13
17311;BME280;8773;43.300;0.394;2023-05-31T12:09:29;99512.28;;;25.45;49.36
17311;BME280;8773;43.300;0.394;2023-05-31T12:11:56;99515.91;;;25.24;50.00
17311;BME280;8773;43.300;0.394;2023-05-31T12:14:24;99512.44;;;25.60;49.63
17311;BME280;8773;43.300;0.394;2023-05-31T12:16:52;99508.88;;;25.92;49.87
17311;BME280;8773;43.300;0.394;2023-05-31T12:19:20;99512.75;;;26.33;48.62
17311;BME280;8773;43.300;0.394;2023-05-31T12:21:49;99514.56;;;26.17;47.50
17311;BME280;8773;43.300;0.394;2023-05-31T12:24:17;99506.94;;;26.24;47.53
17311;BME280;8773;43.300;0.394;2023-05-31T12:26:46;99502.00;;;26.26;48.03
17311;BME280;8773;43.300;0.394;2023-05-31T12:29:13;99494.22;;;26.45;47.64
17311;BME280;8773;43.300;0.394;2023-05-31T12:31:41;99490.50;;;26.77;47.62
17311;BME280;8773;43.300;0.394;2023-05-31T12:34:10;99492.00;;;27.00;46.87
17311;BME280;8773;43.300;0.394;2023-05-31T12:36:40;99475.75;;;26.31;48.20
17311;BME280;8773;43.300;0.394;2023-05-31T12:39:11;99490.97;;;26.11;48.57
17311;BME280;8773;43.300;0.394;2023-05-31T12:41:41;99488.03;;;26.28;47.97
17311;BME280;8773;43.300;0.394;2023-05-31T12:44:12;99481.09;;;26.05;48.00
17311;BME280;8773;43.300;0.394;2023-05-31T12:46:40;99479.53;;;25.77;49.04
17311;BME280;8773;43.300;0.394;2023-05-31T12:49:13;99483.97;;;25.56;49.09
17311;BME280;8773;43.300;0.394;2023-05-31T12:51:41;99490.09;;;25.37;50.28
17311;BME280;8773;43.300;0.394;2023-05-31T12:54:15;99475.88;;;25.40;50.43
17311;BME280;8773;43.300;0.394;2023-05-31T12:56:43;99475.97;;;25.77;49.54
17311;BME280;8773;43.300;0.394;2023-05-31T12:59:11;99473.88;;;25.62;49.90
17311;BME280;8773;43.300;0.394;2023-05-31T13:01:38;99477.19;;;25.64;49.50
17311;BME280;8773;43.300;0.394;2023-05-31T13:04:05;99482.25;;;25.50;50.24
17311;BME280;8773;43.300;0.394;2023-05-31T13:06:33;99465.34;;;25.53;50.12
17311;BME280;8773;43.300;0.394;2023-05-31T13:09:00;99462.28;;;26.19;49.84
17311;BME280;8773;43.300;0.394;2023-05-31T13:11:29;99463.03;;;26.09;49.28
17311;BME280;8773;43.300;0.394;2023-05-31T13:13:57;99462.19;;;26.04;49.24
17311;BME280;8773;43.300;0.394;2023-05-31T13:16:24;99462.94;;;25.94;49.32
17311;BME280;8773;43.300;0.394;2023-05-31T13:18:52;99458.47;;;25.83;49.07